Time;durP1;ratioP1;P1;durP2;ratioP2;P2;SDS_P1;SDS_P2;PMS_P1;PMS_P2;Temp;Humidity;BMP_temperature;BMP_pressure;BME280_temperature;BME280_humidity;BME280_pressure;Samples;Min_cycle;Max_cycle;Signal;HPM_P1;HPM_P2
2023/07/21 00:00:10;;;;;;;37.55;33.95;;;;;;;20.91;100.00;100636.31;5039015;28;20041;-79
2023/07/21 00:02:38;;;;;;;39.90;36.22;;;;;;;20.86;100.00;100642.53;5045529;28;20049;-79
2023/07/21 00:05:06;;;;;;;36.25;32.65;;;;;;;20.99;100.00;100641.13;5041707;28;20055;-80
2023/07/21 00:07:35;;;;;;;39.35;35.70;;;;;;;20.79;100.00;100648.25;5037243;28;20045;-80
2023/07/21 00:10:07;;;;;;;39.22;35.20;;;;;;;20.87;100.00;100641.44;5037031;28;20608;-80
2023/07/21 00:12:35;;;;;;;40.97;37.10;;;;;;;19.91;100.00;100654.03;5038356;28;20057;-80
2023/07/21 00:15:03;;;;;;;38.13;34.67;;;;;;;20.71;100.00;100646.09;5042689;28;20045;-79
2023/07/21 00:17:30;;;;;;;37.28;33.60;;;;;;;20.83;100.00;100658.50;5038203;28;20049;-80
2023/07/21 00:20:03;;;;;;;41.80;38.00;;;;;;;20.86;100.00;100656.03;5037015;28;20050;-79
2023/07/21 00:22:31;;;;;;;40.30;36.50;;;;;;;20.65;100.00;100647.22;5037209;28;20048;-80
2023/07/21 00:25:00;;;;;;;39.38;35.45;;;;;;;20.14;100.00;100661.56;5039911;28;20514;-80
2023/07/21 00:27:27;;;;;;;44.67;40.70;;;;;;;20.41;100.00;100655.06;5041600;28;20049;-80
2023/07/21 00:29:56;;;;;;;40.03;36.50;;;;;;;19.97;100.00;100650.25;5040053;28;20044;-80
2023/07/21 00:32:23;;;;;;;41.15;37.13;;;;;;;19.25;100.00;100649.34;5040910;28;21272;-79
2023/07/21 00:34:52;;;;;;;45.53;41.42;;;;;;;20.13;100.00;100640.28;5035108;28;20095;-80
2023/07/21 00:37:19;;;;;;;42.15;38.33;;;;;;;20.32;100.00;100648.59;5045928;28;20037;-78
2023/07/21 00:39:47;;;;;;;47.42;43.10;;;;;;;20.40;100.00;100644.56;5041450;28;20041;-79
2023/07/21 00:42:17;;;;;;;45.33;41.22;;;;;;;19.96;100.00;100643.25;5048037;28;20460;-78
2023/07/21 00:44:44;;;;;;;46.42;42.20;;;;;;;19.81;100.00;100654.03;5039930;28;20068;-77
2023/07/21 00:47:12;;;;;;;42.08;38.28;;;;;;;20.14;100.00;100647.28;5039125;28;20477;-77
2023/07/21 00:49:39;;;;;;;41.40;37.38;;;;;;;19.40;100.00;100645.88;5039101;28;20546;-77
2023/07/21 00:52:09;;;;;;;48.50;44.15;;;;;;;19.43;100.00;100651.53;5040751;28;20053;-77
2023/07/21 00:54:36;;;;;;;41.10;36.80;;;;;;;19.99;100.00;100642.69;5037576;28;20054;-77
2023/07/21 00:57:03;;;;;;;40.30;35.83;;;;;;;19.58;100.00;100649.94;5045495;28;20103;-77
2023/07/21 00:59:31;;;;;;;39.55;35.58;;;;;;;19.84;100.00;100648.91;5039535;28;20041;-77
2023/07/21 01:01:58;;;;;;;40.45;36.45;;;;;;;19.63;100.00;100647.22;5044274;28;20047;-77
2023/07/21 01:04:26;;;;;;;43.47;39.28;;;;;;;19.90;100.00;100642.44;5036610;28;20425;-77
2023/07/21 01:06:54;;;;;;;39.88;36.17;;;;;;;20.02;100.00;100644.84;5042298;28;20053;-77
2023/07/21 01:09:22;;;;;;;37.80;34.08;;;;;;;19.07;100.00;100647.13;5044069;28;20664;-77
2023/07/21 01:11:49;;;;;;;42.65;36.80;;;;;;;19.25;100.00;100653.91;5041533;28;20045;-77
2023/07/21 01:14:16;;;;;;;40.10;36.53;;;;;;;19.70;100.00;100650.53;5038028;28;20053;-77
2023/07/21 01:16:47;;;;;;;40.65;36.38;;;;;;;19.58;100.00;100652.63;5040343;28;20410;-77
2023/07/21 01:19:15;;;;;;;37.55;33.42;;;;;;;19.33;100.00;100651.47;5041908;28;20057;-77
2023/07/21 01:21:48;;;;;;;39.22;35.15;;;;;;;19.13;100.00;100659.53;5038896;28;20049;-77
2023/07/21 01:24:22;;;;;;;36.65;33.03;;;;;;;19.31;100.00;100663.63;5038595;28;20045;-77
2023/07/21 01:26:51;;;;;;;40.35;33.13;;;;;;;19.55;100.00;100658.56;5032204;28;20136;-77
2023/07/21 01:29:19;;;;;;;38.85;34.67;;;;;;;19.40;100.00;100667.41;5037424;28;20121;-77
2023/07/21 01:31:49;;;;;;;38.58;34.67;;;;;;;19.60;100.00;100667.44;5045404;28;20056;-77
2023/07/21 01:34:18;;;;;;;40.10;36.08;;;;;;;19.41;100.00;100669.03;5033885;28;20045;-77
2023/07/21 01:36:46;;;;;;;41.20;36.83;;;;;;;19.40;100.00;100667.41;5039205;28;20056;-77
2023/07/21 01:39:14;;;;;;;40.70;35.80;;;;;;;19.55;100.00;100664.75;5039520;28;20041;-77
2023/07/21 01:41:42;;;;;;;38.78;34.88;;;;;;;19.49;100.00;100678.47;5035049;28;20044;-77
2023/07/21 01:44:10;;;;;;;41.47;37.05;;;;;;;19.38;100.00;100673.06;5036198;28;20045;-80
2023/07/21 01:46:37;;;;;;;38.45;34.58;;;;;;;19.48;100.00;100676.84;5037887;28;20610;-80
2023/07/21 01:49:04;;;;;;;38.10;34.20;;;;;;;19.38;100.00;100673.06;5036798;28;20049;-80
2023/07/21 01:51:36;;;;;;;42.03;37.28;;;;;;;19.07;100.00;100677.53;5038520;28;20045;-80
2023/07/21 01:54:10;;;;;;;41.88;37.63;;;;;;;18.90;100.00;100674.22;5035823;28;20049;-80
2023/07/21 01:56:46;;;;;;;41.83;37.42;;;;;;;18.65;100.00;100678.38;5041117;28;20056;-80
2023/07/21 01:59:20;;;;;;;38.92;35.28;;;;;;;19.26;100.00;100695.91;5039436;28;20049;-80
2023/07/21 02:01:49;;;;;;;40.90;36.95;;;;;;;19.42;100.00;100697.56;5044312;28;20110;-80
2023/07/21 02:04:18;;;;;;;42.53;38.22;;;;;;;19.03;100.00;100689.06;5034644;28;20045;-80
2023/07/21 02:06:45;;;;;;;46.28;41.65;;;;;;;18.52;100.00;100689.59;5039490;28;20041;-80
2023/07/21 02:09:12;;;;;;;45.05;40.85;;;;;;;19.16;100.00;100700.19;5036914;28;20049;-80
2023/07/21 02:11:40;;;;;;;42.53;38.53;;;;;;;18.80;100.00;100701.09;5040770;28;20054;-80
2023/07/21 02:14:07;;;;;;;52.00;47.30;;;;;;;18.77;100.00;100710.47;5042995;28;20044;-80
2023/07/21 02:16:36;;;;;;;50.42;45.92;;;;;;;19.21;100.00;100697.50;5042450;28;20057;-80
2023/07/21 02:19:05;;;;;;;46.40;41.72;;;;;;;19.25;100.00;100713.94;5038721;28;20080;-80
2023/07/21 02:21:32;;;;;;;48.17;43.55;;;;;;;19.04;100.00;100712.25;5041658;28;20132;-77
2023/07/21 02:23:59;;;;;;;42.60;38.35;;;;;;;18.47;100.00;100708.38;5039412;28;20049;-77
2023/07/21 02:26:26;;;;;;;56.10;51.17;;;;;;;18.78;100.00;100709.41;5045208;28;20045;-80
2023/07/21 02:28:53;;;;;;;49.50;45.20;;;;;;;19.06;100.00;100700.13;5038387;28;20455;-77
2023/07/21 02:31:21;;;;;;;47.15;42.95;;;;;;;18.75;100.00;100708.03;5041782;28;20114;-77
2023/07/21 02:33:49;;;;;;;44.58;40.15;;;;;;;18.80;100.00;100703.78;5038499;28;20041;-80
2023/07/21 02:36:19;;;;;;;45.63;41.47;;;;;;;18.92;100.00;100712.44;5036875;28;20045;-77
2023/07/21 02:38:50;;;;;;;48.85;44.28;;;;;;;18.77;100.00;100718.56;5039369;28;20059;-77
2023/07/21 02:41:17;;;;;;;43.42;39.50;;;;;;;19.04;100.00;100723.00;5039125;28;20059;-77
2023/07/21 02:43:44;;;;;;;38.47;34.95;;;;;;;19.03;100.00;100729.44;5038453;28;20076;-77
2023/07/21 02:46:11;;;;;;;51.40;47.03;;;;;;;18.60;100.00;100721.38;5037452;28;20050;-77
2023/07/21 02:48:38;;;;;;;46.30;41.97;;;;;;;18.62;100.00;100726.50;5036131;28;20050;-77
2023/07/21 02:51:07;;;;;;;41.70;37.80;;;;;;;18.82;100.00;100728.53;5042354;28;20428;-80
2023/07/21 02:53:34;;;;;;;37.88;34.08;;;;;;;18.91;100.00;100735.88;5041361;28;20428;-77
2023/07/21 02:56:03;;;;;;;37.65;33.67;;;;;;;17.84;100.00;100733.09;5039045;28;20041;-77
2023/07/21 02:58:31;;;;;;;37.85;33.90;;;;;;;18.10;100.00;100743.31;5038893;28;20128;-77
2023/07/21 03:00:59;;;;;;;38.03;33.85;;;;;;;18.53;100.00;100748.50;5035176;28;20487;-77
2023/07/21 03:03:26;;;;;;;35.17;31.35;;;;;;;18.75;100.00;100743.00;5033660;28;20051;-77
2023/07/21 03:05:54;;;;;;;34.72;31.60;;;;;;;19.07;100.00;100747.50;5036945;28;20120;-77
2023/07/21 03:08:29;;;;;;;35.60;32.13;;;;;;;18.20;100.00;100743.38;5042945;28;20094;-77
2023/07/21 03:10:56;;;;;;;34.35;31.25;;;;;;;18.05;100.00;100757.50;5042439;28;20045;-77
2023/07/21 03:13:24;;;;;;;34.60;31.23;;;;;;;18.33;100.00;100753.69;5038477;28;20045;-80
2023/07/21 03:15:51;;;;;;;34.17;30.88;;;;;;;18.16;100.00;100761.09;5040467;28;20045;-77
2023/07/21 03:18:18;;;;;;;34.78;31.40;;;;;;;18.16;100.00;100761.91;5038902;28;20079;-80
2023/07/21 03:20:45;;;;;;;32.40;29.15;;;;;;;18.56;100.00;100765.19;5041036;28;20053;-77
2023/07/21 03:23:12;;;;;;;32.40;29.40;;;;;;;18.86;100.00;100762.75;5039869;28;20073;-80
2023/07/21 03:25:43;;;;;;;33.35;30.38;;;;;;;18.94;100.00;100758.72;5041814;28;20489;-77
2023/07/21 03:28:11;;;;;;;35.87;32.67;;;;;;;18.76;100.00;100768.88;5045735;28;20134;-77
2023/07/21 03:30:39;;;;;;;35.97;32.65;;;;;;;18.38;100.00;100777.16;5039068;28;20317;-80
2023/07/21 03:33:06;;;;;;;35.38;31.77;;;;;;;18.00;100.00;100766.34;5039566;28;20249;-77
2023/07/21 03:35:33;;;;;;;35.75;32.35;;;;;;;18.62;100.00;100778.41;5041665;28;20501;-79
2023/07/21 03:38:00;;;;;;;36.47;33.25;;;;;;;19.24;100.00;100779.63;5042389;28;20049;-77
2023/07/21 03:40:27;;;;;;;36.85;33.22;;;;;;;19.31;100.00;100776.72;5045079;28;20053;-77
2023/07/21 03:42:55;;;;;;;38.00;34.35;;;;;;;19.34;100.00;100785.06;5047182;28;20045;-80
2023/07/21 03:45:23;;;;;;;36.97;33.67;;;;;;;19.23;100.00;100786.88;5046695;28;20089;-79
2023/07/21 03:47:50;;;;;;;37.75;34.15;;;;;;;19.54;100.00;100802.38;5045856;28;20060;-80
2023/07/21 03:50:17;;;;;;;36.63;33.22;;;;;;;19.64;100.00;100799.75;5044993;28;20041;-80
2023/07/21 03:52:45;;;;;;;40.83;37.40;;;;;;;19.53;100.00;100812.34;5047379;28;20175;-79
2023/07/21 03:55:12;;;;;;;37.42;33.75;;;;;;;19.67;100.00;100810.81;5047576;28;20072;-79
2023/07/21 03:57:39;;;;;;;35.38;32.13;;;;;;;19.65;100.00;100815.66;5046228;28;20119;-79
2023/07/21 04:00:10;;;;;;;36.22;32.60;;;;;;;19.90;100.00;100819.50;5045494;28;20048;-79
2023/07/21 04:02:37;;;;;;;35.88;32.50;;;;;;;20.19;100.00;100819.03;5041334;28;20049;-77
2023/07/21 04:05:04;;;;;;;34.55;31.63;;;;;;;20.14;100.00;100817.94;5043510;28;20044;-80
2023/07/21 04:07:32;;;;;;;42.13;38.17;;;;;;;20.37;100.00;100829.31;5039879;28;20456;-77
2023/07/21 04:10:01;;;;;;;39.65;36.15;;;;;;;20.44;100.00;100826.34;5046020;28;20045;-77
2023/07/21 04:12:28;;;;;;;38.83;35.10;;;;;;;20.28;100.00;100836.31;5043997;28;20046;-77
2023/07/21 04:14:55;;;;;;;37.08;33.85;;;;;;;20.63;100.00;100827.44;5042202;28;20072;-77
2023/07/21 04:17:24;;;;;;;37.05;33.40;;;;;;;20.79;100.00;100833.66;5048735;28;20033;-77
2023/07/21 04:19:51;;;;;;;43.80;39.20;;;;;;;20.73;100.00;100827.47;5045927;28;20052;-77
2023/07/21 04:22:18;;;;;;;32.28;28.88;;;;;;;20.81;100.00;100836.88;5046253;28;20048;-77
2023/07/21 04:24:45;;;;;;;35.85;32.13;;;;;;;21.13;100.00;100841.19;5046200;28;20071;-77
2023/07/21 04:27:12;;;;;;;34.70;31.60;;;;;;;21.01;100.00;100849.56;5045794;28;20135;-77
2023/07/21 04:29:39;;;;;;;44.63;40.90;;;;;;;21.33;100.00;100851.09;5047483;28;20045;-79
2023/07/21 04:32:06;;;;;;;39.30;35.90;;;;;;;21.37;100.00;100853.03;5045640;28;20069;-77
2023/07/21 04:34:35;;;;;;;38.50;35.00;;;;;;;21.36;100.00;100858.69;5044007;28;20041;-77
2023/07/21 04:37:02;;;;;;;36.45;32.95;;;;;;;21.53;100.00;100861.09;5046068;28;20505;-77
2023/07/21 04:39:29;;;;;;;35.60;31.95;;;;;;;21.31;100.00;100859.50;5045868;28;20048;-77
2023/07/21 04:41:56;;;;;;;34.75;31.55;;;;;;;21.87;100.00;100851.19;5044836;28;20048;-77
2023/07/21 04:44:23;;;;;;;37.75;34.00;;;;;;;22.13;100.00;100853.78;5037652;28;20059;-76
2023/07/21 04:46:51;;;;;;;37.03;33.38;;;;;;;22.15;100.00;100855.13;5039678;28;20433;-77
2023/07/21 04:49:17;;;;;;;34.92;31.67;;;;;;;22.22;100.00;100852.13;5046330;28;20084;-77
2023/07/21 04:51:46;;;;;;;35.80;32.58;;;;;;;22.41;100.00;100854.97;5044907;28;20056;-77
2023/07/21 04:54:16;;;;;;;34.75;31.60;;;;;;;22.26;100.00;100853.19;5040411;28;20398;-77
2023/07/21 04:56:44;;;;;;;34.35;31.30;;;;;;;22.51;100.00;100851.38;4691558;28;10000356;-77
2023/07/21 04:59:11;;;;;;;34.40;31.17;;;;;;;22.75;100.00;100844.13;5041336;28;20041;-77
2023/07/21 05:01:38;;;;;;;35.38;31.77;;;;;;;22.78;100.00;100859.00;5047436;28;20160;-77
2023/07/21 05:04:05;;;;;;;34.78;31.60;;;;;;;23.06;100.00;100852.84;5048072;28;20113;-80
2023/07/21 05:06:33;;;;;;;33.38;30.38;;;;;;;23.22;100.00;100856.19;5045934;28;20057;-79
2023/07/21 05:09:01;;;;;;;31.98;29.17;;;;;;;23.38;100.00;100869.56;5045628;28;20048;-79
2023/07/21 05:11:28;;;;;;;34.53;31.15;;;;;;;23.47;100.00;100871.34;5044813;28;20081;-77
2023/07/21 05:13:56;;;;;;;34.45;31.27;;;;;;;23.48;100.00;100872.97;5045780;28;20048;-76
2023/07/21 05:16:23;;;;;;;33.25;30.30;;;;;;;23.89;100.00;100863.56;5046855;28;20048;-76
2023/07/21 05:18:50;;;;;;;32.83;29.70;;;;;;;24.41;100.00;100865.25;5046070;28;20053;-76
2023/07/21 05:21:17;;;;;;;29.90;27.08;;;;;;;24.78;100.00;100869.06;5046399;28;20041;-77
2023/07/21 05:23:46;;;;;;;38.40;28.23;;;;;;;25.06;100.00;100866.41;5047493;28;20167;-76
2023/07/21 05:26:17;;;;;;;39.53;28.25;;;;;;;24.92;100.00;100874.50;5046025;28;20045;-77
2023/07/21 05:28:46;;;;;;;36.97;26.27;;;;;;;25.16;100.00;100865.44;5041482;28;20563;-77
2023/07/21 05:31:13;;;;;;;36.95;25.73;;;;;;;25.08;100.00;100862.28;5046775;28;20511;-76
2023/07/21 05:33:40;;;;;;;31.60;26.02;;;;;;;25.25;100.00;100871.78;5046696;28;20057;-77
2023/07/21 05:36:10;;;;;;;28.70;26.02;;;;;;;25.49;100.00;100875.09;5045009;28;20119;-77
2023/07/21 05:38:37;;;;;;;28.13;25.17;;;;;;;25.65;100.00;100870.16;5046746;28;20057;-76
2023/07/21 05:41:04;;;;;;;27.75;24.83;;;;;;;25.55;100.00;100860.31;5047063;28;20049;-77
2023/07/21 05:43:33;;;;;;;27.55;24.90;;;;;;;26.01;100.00;100862.06;5046040;28;20068;-76
2023/07/21 05:46:03;;;;;;;28.75;25.85;;;;;;;25.74;100.00;100865.63;5046292;28;20489;-77
2023/07/21 05:48:30;;;;;;;29.58;26.77;;;;;;;25.37;100.00;100880.25;5045225;28;20488;-77
2023/07/21 05:50:57;;;;;;;28.70;26.13;;;;;;;25.66;100.00;100879.13;5044378;28;20400;-77
2023/07/21 05:53:24;;;;;;;28.63;25.48;;;;;;;25.77;100.00;100872.38;5041101;28;20414;-77
2023/07/21 05:55:51;;;;;;;30.88;27.90;;;;;;;25.93;100.00;100873.69;5045346;28;20051;-77
2023/07/21 05:58:19;;;;;;;25.27;23.00;;;;;;;26.55;100.00;100867.66;5041740;28;20045;-77
2023/07/21 06:00:47;;;;;;;25.30;23.20;;;;;;;26.32;100.00;100874.19;5040919;28;20053;-76
2023/07/21 06:03:14;;;;;;;27.50;24.70;;;;;;;26.20;100.00;100875.56;5047682;28;20139;-77
2023/07/21 06:05:42;;;;;;;28.13;25.40;;;;;;;25.98;100.00;100870.84;5045130;28;20493;-76
2023/07/21 06:08:08;;;;;;;26.55;24.02;;;;;;;26.00;100.00;100889.59;5046547;28;20423;-77
2023/07/21 06:10:36;;;;;;;25.77;23.23;;;;;;;26.45;100.00;100879.59;5042778;28;20045;-77
2023/07/21 06:13:04;;;;;;;25.50;23.30;;;;;;;26.50;100.00;100890.38;5041656;28;20052;-77
2023/07/21 06:15:30;;;;;;;25.40;22.75;;;;;;;26.58;100.00;100886.13;5046884;28;20132;-76
2023/07/21 06:17:59;;;;;;;24.50;22.45;;;;;;;26.84;100.00;100885.47;5046508;28;20437;-77
2023/07/21 06:20:26;;;;;;;24.80;22.60;;;;;;;26.95;100.00;100881.38;5037284;28;20519;-76
2023/07/21 06:22:53;;;;;;;24.30;21.88;;;;;;;26.80;100.00;100879.03;5046858;28;20071;-77
2023/07/21 06:25:21;;;;;;;24.85;22.55;;;;;;;26.75;100.00;100880.00;5042937;28;20103;-77
2023/07/21 06:27:48;;;;;;;24.10;22.00;;;;;;;26.99;100.00;100876.94;5037657;28;20455;-76
2023/07/21 06:30:15;;;;;;;27.90;25.20;;;;;;;26.54;100.00;100868.78;5045456;28;20133;-76
2023/07/21 06:32:42;;;;;;;26.42;24.23;;;;;;;26.72;100.00;100878.69;5043516;28;20049;-76
2023/07/21 06:35:11;;;;;;;29.17;27.10;;;;;;;26.86;100.00;100875.88;5039852;28;20049;-80
2023/07/21 06:37:39;;;;;;;29.00;26.63;;;;;;;27.07;100.00;100873.44;5045939;28;20052;-80
2023/07/21 06:40:07;;;;;;;27.85;25.50;;;;;;;27.12;100.00;100884.19;5042760;28;20041;-80
2023/07/21 06:42:34;;;;;;;29.42;26.63;;;;;;;26.85;100.00;100874.28;5045596;28;20049;-80
2023/07/21 06:45:01;;;;;;;25.40;23.33;;;;;;;27.07;100.00;100875.34;5043257;28;20045;-80
2023/07/21 06:47:28;;;;;;;25.77;23.48;;;;;;;27.34;100.00;100874.38;5041336;28;20060;-80
2023/07/21 06:49:55;;;;;;;26.08;23.80;;;;;;;27.21;100.00;100880.75;5042315;28;20411;-80
2023/07/21 06:52:24;;;;;;;25.17;23.10;;;;;;;27.63;100.00;100873.84;5043542;28;20045;-80
2023/07/21 06:54:51;;;;;;;26.80;24.45;;;;;;;27.79;100.00;100871.50;5045288;28;20041;-80
2023/07/21 06:57:18;;;;;;;26.15;24.20;;;;;;;28.09;100.00;100869.78;5045703;28;20045;-80
2023/07/21 06:59:46;;;;;;;28.85;26.63;;;;;;;27.90;100.00;100864.63;5043115;28;20409;-80
2023/07/21 07:02:13;;;;;;;28.60;26.70;;;;;;;28.29;100.00;100862.84;5044121;28;20146;-76
2023/07/21 07:04:40;;;;;;;29.83;27.73;;;;;;;28.22;100.00;100860.59;5040918;28;20045;-77
2023/07/21 07:07:08;;;;;;;28.17;25.98;;;;;;;28.61;100.00;100866.25;5042380;28;20522;-77
2023/07/21 07:09:37;;;;;;;31.33;29.02;;;;;;;28.21;100.00;100858.22;5040350;28;20227;-77
2023/07/21 07:12:08;;;;;;;28.90;25.98;;;;;;;28.30;100.00;100859.00;5040585;28;20049;-77
2023/07/21 07:14:36;;;;;;;29.17;26.60;;;;;;;28.60;100.00;100872.84;5038662;28;20535;-76
2023/07/21 07:17:03;;;;;;;25.35;23.15;;;;;;;28.68;100.00;100863.81;5041288;28;20063;-76
2023/07/21 07:19:30;;;;;;;28.58;25.70;;;;;;;28.42;100.00;100867.38;5036159;28;20132;-76
2023/07/21 07:21:57;;;;;;;26.70;24.67;;;;;;;28.35;100.00;100868.94;5040407;28;20088;-76
2023/07/21 07:24:24;;;;;;;29.33;26.75;;;;;;;28.39;100.00;100864.47;5038247;28;20057;-76
2023/07/21 07:26:54;;;;;;;27.65;25.65;;;;;;;28.37;100.00;100862.06;5042158;28;20554;-77
2023/07/21 07:29:21;;;;;;;25.17;23.13;;;;;;;28.71;100.00;100857.69;5038228;28;20037;-81
2023/07/21 07:31:49;;;;;;;30.52;28.23;;;;;;;28.95;100.00;100854.41;5037756;28;20452;-81
2023/07/21 07:34:16;;;;;;;31.20;28.75;;;;;;;28.98;100.00;100846.34;5038064;28;20405;-81
2023/07/21 07:36:43;;;;;;;34.03;31.30;;;;;;;28.73;100.00;100852.72;5035950;28;20586;-80
2023/07/21 07:39:11;;;;;;;31.15;28.85;;;;;;;29.37;100.00;100851.84;5044901;28;20048;-81
2023/07/21 07:41:38;;;;;;;31.45;29.17;;;;;;;29.67;100.00;100855.41;5043834;28;20524;-80
2023/07/21 07:44:08;;;;;;;32.03;29.40;;;;;;;29.00;100.00;100848.78;5044553;28;20041;-80
2023/07/21 07:46:35;;;;;;;31.52;29.10;;;;;;;29.36;100.00;100853.81;5044025;28;20048;-81
2023/07/21 07:49:03;;;;;;;32.72;30.05;;;;;;;29.35;100.00;100854.94;5045368;28;20059;-81
2023/07/21 07:51:30;;;;;;;32.72;30.23;;;;;;;29.31;100.00;100840.31;5043272;28;20048;-80
2023/07/21 07:53:58;;;;;;;34.20;31.70;;;;;;;29.69;100.00;100844.97;5047976;28;20055;-80
2023/07/21 07:56:28;;;;;;;35.35;32.83;;;;;;;30.10;100.00;100848.81;4692186;28;9999977;-81
2023/07/21 07:58:57;;;;;;;34.35;31.98;;;;;;;29.75;100.00;100845.56;5037815;28;20049;-80
2023/07/21 08:01:29;;;;;;;33.38;30.80;;;;;;;29.75;100.00;100838.16;5043062;28;20109;-77
2023/07/21 08:03:56;;;;;;;36.67;34.30;;;;;;;29.97;100.00;100841.69;5042777;28;20136;-81
2023/07/21 08:06:23;;;;;;;36.70;34.20;;;;;;;29.79;100.00;100836.34;5045821;28;20049;-81
2023/07/21 08:08:50;;;;;;;35.05;32.65;;;;;;;29.92;100.00;100837.22;5044883;28;20138;-81
2023/07/21 08:11:16;;;;;;;32.97;30.77;;;;;;;30.05;100.00;100838.09;5042570;28;20308;-80
2023/07/21 08:13:44;;;;;;;33.15;30.50;;;;;;;30.50;100.00;100845.59;5041408;28;20059;-77
2023/07/21 08:16:15;;;;;;;33.03;30.42;;;;;;;30.24;100.00;100840.38;5044272;28;20500;-77
2023/07/21 08:18:43;;;;;;;34.03;31.58;;;;;;;30.04;100.00;100850.16;5045320;28;20081;-77
2023/07/21 08:21:21;;;;;;;34.25;31.85;;;;;;;30.08;100.00;100840.97;5043370;28;20056;-77
2023/07/21 08:23:50;;;;;;;34.17;31.67;;;;;;;30.46;100.00;100844.69;5044151;28;20144;-77
2023/07/21 08:26:19;;;;;;;37.05;34.22;;;;;;;30.67;100.00;100847.38;5044782;28;20052;-77
2023/07/21 08:28:52;;;;;;;41.78;38.83;;;;;;;31.06;100.00;100842.44;5045034;28;20432;-77
2023/07/21 08:31:19;;;;;;;39.55;36.55;;;;;;;31.10;100.00;100843.34;5042606;28;20122;-77
2023/07/21 08:33:47;;;;;;;41.30;38.40;;;;;;;31.15;100.00;100845.88;5045776;28;20432;-77
2023/07/21 08:36:16;;;;;;;37.88;35.13;;;;;;;31.07;100.00;100850.31;5045057;28;20045;-77
2023/07/21 08:38:43;;;;;;;29.83;27.50;;;;;;;31.04;100.00;100851.00;5045982;28;20524;-81
2023/07/21 08:41:15;;;;;;;38.17;35.38;;;;;;;31.07;100.00;100850.31;5044648;28;20876;-81
2023/07/21 08:43:43;;;;;;;35.83;33.25;;;;;;;31.14;100.00;100856.06;5044266;28;20053;-82
2023/07/21 08:46:10;;;;;;;37.88;35.08;;;;;;;31.37;100.00;100863.84;5041661;28;20049;-77
2023/07/21 08:48:40;;;;;;;37.17;34.67;;;;;;;31.12;100.00;100860.28;5040947;28;20037;-77
2023/07/21 08:51:08;;;;;;;36.08;33.28;;;;;;;31.57;100.00;100854.69;5043013;28;20049;-77
2023/07/21 08:53:35;;;;;;;37.85;34.95;;;;;;;31.69;100.00;100854.69;5044770;28;20732;-77
2023/07/21 08:56:03;;;;;;;39.45;36.63;;;;;;;31.64;100.00;100857.66;5044412;28;20056;-81
2023/07/21 08:58:30;;;;;;;28.42;26.00;;;;;;;31.55;100.00;100858.94;5042617;28;20055;-81
2023/07/21 09:00:58;;;;;;;31.65;29.25;;;;;;;32.03;100.00;100860.81;5042066;28;20056;-81
2023/07/21 09:03:26;;;;;;;30.92;28.42;;;;;;;31.54;100.00;100860.09;5041505;28;20046;-81
2023/07/21 09:05:56;;;;;;;31.25;28.52;;;;;;;32.11;100.00;100859.88;5041301;28;20049;-81
2023/07/21 09:08:27;;;;;;;29.27;26.92;;;;;;;31.78;100.00;100862.78;5042445;28;20567;-77
2023/07/21 09:10:58;;;;;;;30.42;28.08;;;;;;;31.90;100.00;100860.03;5042706;28;20045;-81
2023/07/21 09:13:25;;;;;;;31.07;28.53;;;;;;;32.56;100.00;100867.03;5041129;28;20137;-81
2023/07/21 09:15:54;;;;;;;28.98;26.48;;;;;;;32.58;100.00;100878.47;5044320;28;20053;-81
2023/07/21 09:18:26;;;;;;;28.75;26.45;;;;;;;32.44;100.00;100863.50;5039671;28;20594;-81
2023/07/21 09:20:53;;;;;;;27.23;25.13;;;;;;;32.59;100.00;100863.59;5040326;28;20040;-81
2023/07/21 09:23:21;;;;;;;28.00;25.80;;;;;;;32.55;100.00;100870.13;5041026;28;20037;-81
2023/07/21 09:25:57;;;;;;;28.85;26.15;;;;;;;32.40;100.00;100855.97;5041854;28;20044;-81
2023/07/21 09:28:39;;;;;;;28.13;25.83;;;;;;;32.61;100.00;100854.97;5036822;28;20478;-81
2023/07/21 09:31:07;;;;;;;30.63;28.27;;;;;;;32.42;100.00;100849.34;5045963;28;20140;-81
2023/07/21 09:33:37;;;;;;;30.50;28.20;;;;;;;32.33;100.00;100855.78;5043364;28;20566;-80
2023/07/21 09:36:06;;;;;;;33.53;30.45;;;;;;;32.35;100.00;100856.22;5047811;28;20110;-80
2023/07/21 09:38:35;;;;;;;30.88;28.75;;;;;;;32.61;100.00;100843.97;5042255;28;20047;-77
2023/07/21 09:41:05;;;;;;;30.88;28.63;;;;;;;32.61;100.00;100844.78;5045434;28;20048;-81
2023/07/21 09:43:33;;;;;;;32.67;30.33;;;;;;;32.59;100.00;100847.09;5042745;28;20394;-81
2023/07/21 09:46:01;;;;;;;32.88;30.27;;;;;;;33.02;100.00;100845.47;5046540;28;20051;-81
2023/07/21 09:48:29;;;;;;;30.42;27.88;;;;;;;32.61;100.00;100850.28;5044509;28;20409;-81
2023/07/21 09:50:59;;;;;;;30.85;28.20;;;;;;;33.52;100.00;100838.41;5042387;28;20056;-77
2023/07/21 09:53:31;;;;;;;29.23;26.40;;;;;;;33.35;91.05;100833.28;5042995;28;20041;-81
2023/07/21 09:55:59;;;;;;;29.80;27.13;;;;;;;32.87;98.28;100835.25;5046856;28;20071;-81
2023/07/21 09:58:29;;;;;;;31.05;28.23;;;;;;;33.12;95.93;100830.38;5042457;28;20060;-81
2023/07/21 10:01:00;;;;;;;44.25;38.00;;;;;;;34.02;99.95;100830.44;5041444;28;20496;-81
2023/07/21 10:03:28;;;;;;;28.98;26.58;;;;;;;33.33;92.77;100821.81;5040210;28;20037;-81
2023/07/21 10:05:55;;;;;;;28.17;25.63;;;;;;;33.54;91.20;100834.50;5043216;28;20044;-81
2023/07/21 10:08:23;;;;;;;29.30;27.10;;;;;;;33.21;87.13;100819.97;5034140;28;20041;-80
2023/07/21 10:10:50;;;;;;;27.63;25.63;;;;;;;33.42;87.21;100825.19;5038699;28;20056;-81
2023/07/21 10:13:17;;;;;;;27.13;25.02;;;;;;;33.09;84.19;100831.09;5037928;28;20072;-81
2023/07/21 10:15:47;;;;;;;28.98;26.88;;;;;;;33.10;88.45;100832.66;5034339;28;20505;-81
2023/07/21 10:18:15;;;;;;;29.40;27.20;;;;;;;33.41;82.17;100820.03;5043371;28;20045;-81
2023/07/21 10:20:44;;;;;;;30.83;28.23;;;;;;;33.16;87.35;100813.94;5032937;28;20049;-81
2023/07/21 10:23:13;;;;;;;30.25;27.55;;;;;;;33.49;88.52;100813.53;5040078;28;20475;-81
2023/07/21 10:25:47;;;;;;;30.35;27.95;;;;;;;33.58;92.25;100808.63;5038137;28;20052;-81
2023/07/21 10:28:14;;;;;;;30.38;27.77;;;;;;;33.72;92.24;100814.47;5037635;28;20049;-80
2023/07/21 10:30:42;;;;;;;30.85;28.33;;;;;;;33.39;76.63;100805.84;5037359;28;20154;-77
2023/07/21 10:33:16;;;;;;;31.15;28.65;;;;;;;33.71;71.97;100814.84;5036968;28;20061;-77
2023/07/21 10:35:43;;;;;;;31.13;28.58;;;;;;;33.78;75.19;100811.44;5035722;28;20137;-77
2023/07/21 10:38:27;;;;;;;30.40;28.00;;;;;;;33.78;70.46;100809.47;5039073;28;20053;-77
2023/07/21 10:40:54;;;;;;;28.83;26.33;;;;;;;33.44;77.07;100811.06;5041166;28;20497;-81
2023/07/21 10:43:21;;;;;;;29.65;27.15;;;;;;;34.04;64.98;100808.03;5038254;28;20056;-78
2023/07/21 10:45:53;;;;;;;28.00;25.77;;;;;;;33.89;65.74;100812.44;5037199;28;20045;-79
2023/07/21 10:48:25;;;;;;;27.45;25.15;;;;;;;33.55;74.28;100794.81;5036753;28;20144;-80
2023/07/21 10:50:56;;;;;;;30.50;27.80;;;;;;;34.43;66.97;100793.06;5037141;28;20535;-81
2023/07/21 10:53:23;;;;;;;32.67;29.98;;;;;;;34.20;58.76;100792.25;5038397;28;20041;-81
2023/07/21 10:55:52;;;;;;;32.67;30.27;;;;;;;34.55;61.29;100783.81;5036908;28;20049;-78
2023/07/21 10:58:19;;;;;;;34.47;31.77;;;;;;;34.67;67.40;100785.59;5036501;28;20122;-80
2023/07/21 11:00:47;;;;;;;34.55;32.05;;;;;;;34.29;63.95;100789.25;5040576;28;20163;-77
2023/07/21 11:03:15;;;;;;;34.05;31.65;;;;;;;34.78;58.17;100772.00;5035948;28;20477;-80
2023/07/21 11:05:43;;;;;;;38.13;35.33;;;;;;;35.06;64.44;100766.16;5040881;28;20500;-80